sensor_id;sensor_type;location;lat;lon;timestamp;temperature;humidity
13682;DHT22;6913;49.892;7.936;2023-01-28T00:01:06;3.10;99.90
13682;DHT22;6913;49.892;7.936;2023-01-28T00:03:33;3.10;99.90
13682;DHT22;6913;49.892;7.936;2023-01-28T00:06:03;3.00;99.90
13682;DHT22;6913;49.892;7.936;2023-01-28T00:08:30;3.10;99.90
13682;DHT22;6913;49.892;7.936;2023-01-28T00:10:58;3.10;99.90
13682;DHT22;6913;49.892;7.936;2023-01-28T00:13:26;3.10;99.90
13682;DHT22;6913;49.892;7.936;2023-01-28T00:15:56;3.10;99.90
13682;DHT22;6913;49.892;7.936;2023-01-28T00:18:23;3.10;99.90
13682;DHT22;6913;49.892;7.936;2023-01-28T00:20:57;3.10;99.90
13682;DHT22;6913;49.892;7.936;2023-01-28T00:23:24;3.10;99.90
13682;DHT22;6913;49.892;7.936;2023-01-28T00:25:51;3.10;99.90
13682;DHT22;6913;49.892;7.936;2023-01-28T00:28:19;3.50;99.90
13682;DHT22;6913;49.892;7.936;2023-01-28T00:30:46;3.20;99.90
13682;DHT22;6913;49.892;7.936;2023-01-28T00:33:14;3.10;99.90
13682;DHT22;6913;49.892;7.936;2023-01-28T00:35:40;3.10;99.90
13682;DHT22;6913;49.892;7.936;2023-01-28T00:38:07;3.10;99.90
13682;DHT22;6913;49.892;7.936;2023-01-28T00:40:35;3.10;99.90
13682;DHT22;6913;49.892;7.936;2023-01-28T00:43:02;3.10;99.90
13682;DHT22;6913;49.892;7.936;2023-01-28T00:45:28;3.10;99.90
13682;DHT22;6913;49.892;7.936;2023-01-28T00:47:55;3.10;99.90
13682;DHT22;6913;49.892;7.936;2023-01-28T00:50:23;3.10;99.90
13682;DHT22;6913;49.892;7.936;2023-01-28T00:52:50;3.10;99.90
13682;DHT22;6913;49.892;7.936;2023-01-28T00:55:17;3.10;99.90
13682;DHT22;6913;49.892;7.936;2023-01-28T00:57:44;3.10;99.90
13682;DHT22;6913;49.892;7.936;2023-01-28T01:00:11;3.10;99.90
13682;DHT22;6913;49.892;7.936;2023-01-28T01:02:38;3.00;99.90
13682;DHT22;6913;49.892;7.936;2023-01-28T01:05:06;3.00;99.90
13682;DHT22;6913;49.892;7.936;2023-01-28T01:07:34;2.90;99.90
13682;DHT22;6913;49.892;7.936;2023-01-28T01:10:07;2.90;99.90
13682;DHT22;6913;49.892;7.936;2023-01-28T01:12:34;2.90;99.90
13682;DHT22;6913;49.892;7.936;2023-01-28T01:15:01;3.00;99.90
13682;DHT22;6913;49.892;7.936;2023-01-28T01:17:29;3.30;99.90
13682;DHT22;6913;49.892;7.936;2023-01-28T01:19:56;3.00;99.90
13682;DHT22;6913;49.892;7.936;2023-01-28T01:22:23;3.00;99.90
13682;DHT22;6913;49.892;7.936;2023-01-28T01:24:51;3.00;99.90
13682;DHT22;6913;49.892;7.936;2023-01-28T01:27:18;3.00;99.90
13682;DHT22;6913;49.892;7.936;2023-01-28T01:29:44;3.00;99.90
13682;DHT22;6913;49.892;7.936;2023-01-28T01:32:11;3.10;99.90
13682;DHT22;6913;49.892;7.936;2023-01-28T01:34:38;3.00;99.90
13682;DHT22;6913;49.892;7.936;2023-01-28T01:37:05;3.00;99.90
13682;DHT22;6913;49.892;7.936;2023-01-28T01:39:33;3.00;99.90
13682;DHT22;6913;49.892;7.936;2023-01-28T01:42:01;3.00;99.90
13682;DHT22;6913;49.892;7.936;2023-01-28T01:44:55;3.00;99.90
13682;DHT22;6913;49.892;7.936;2023-01-28T01:47:25;3.00;99.90
13682;DHT22;6913;49.892;7.936;2023-01-28T01:49:53;3.00;99.90
13682;DHT22;6913;49.892;7.936;2023-01-28T01:52:24;2.90;99.90
13682;DHT22;6913;49.892;7.936;2023-01-28T01:54:55;2.90;99.90
13682;DHT22;6913;49.892;7.936;2023-01-28T01:57:30;3.00;99.90
13682;DHT22;6913;49.892;7.936;2023-01-28T01:59:58;2.90;99.90
13682;DHT22;6913;49.892;7.936;2023-01-28T02:02:34;3.00;99.90
13682;DHT22;6913;49.892;7.936;2023-01-28T02:05:36;2.90;99.90
13682;DHT22;6913;49.892;7.936;2023-01-28T02:08:04;2.90;99.90
13682;DHT22;6913;49.892;7.936;2023-01-28T02:10:45;2.90;99.90
13682;DHT22;6913;49.892;7.936;2023-01-28T02:13:15;2.90;99.90
13682;DHT22;6913;49.892;7.936;2023-01-28T02:15:43;2.90;99.90
13682;DHT22;6913;49.892;7.936;2023-01-28T02:18:11;2.90;99.90
13682;DHT22;6913;49.892;7.936;2023-01-28T02:20:56;2.90;99.90
13682;DHT22;6913;49.892;7.936;2023-01-28T02:23:33;2.90;99.90
13682;DHT22;6913;49.892;7.936;2023-01-28T02:26:45;2.90;99.90
13682;DHT22;6913;49.892;7.936;2023-01-28T02:29:21;2.90;99.90
13682;DHT22;6913;49.892;7.936;2023-01-28T02:31:52;2.90;99.90
13682;DHT22;6913;49.892;7.936;2023-01-28T02:34:29;2.90;99.90
13682;DHT22;6913;49.892;7.936;2023-01-28T02:37:01;2.90;99.90
13682;DHT22;6913;49.892;7.936;2023-01-28T02:39:34;3.20;99.90
13682;DHT22;6913;49.892;7.936;2023-01-28T02:42:05;2.90;99.90
13682;DHT22;6913;49.892;7.936;2023-01-28T02:44:34;2.90;99.90
13682;DHT22;6913;49.892;7.936;2023-01-28T02:47:01;2.90;99.90
13682;DHT22;6913;49.892;7.936;2023-01-28T02:49:48;2.80;99.90
13682;DHT22;6913;49.892;7.936;2023-01-28T02:52:29;2.90;99.90
13682;DHT22;6913;49.892;7.936;2023-01-28T02:55:20;2.80;99.90
13682;DHT22;6913;49.892;7.936;2023-01-28T02:57:59;2.80;99.90
13682;DHT22;6913;49.892;7.936;2023-01-28T03:00:33;2.70;99.90
13682;DHT22;6913;49.892;7.936;2023-01-28T03:03:14;2.70;99.90
13682;DHT22;6913;49.892;7.936;2023-01-28T03:05:43;2.80;99.90
13682;DHT22;6913;49.892;7.936;2023-01-28T03:08:30;2.70;99.90
13682;DHT22;6913;49.892;7.936;2023-01-28T03:11:16;2.80;99.90
13682;DHT22;6913;49.892;7.936;2023-01-28T03:14:00;2.80;99.90
13682;DHT22;6913;49.892;7.936;2023-01-28T03:16:46;2.80;99.90
13682;DHT22;6913;49.892;7.936;2023-01-28T03:19:32;2.80;99.90
13682;DHT22;6913;49.892;7.936;2023-01-28T03:22:17;2.80;99.90
13682;DHT22;6913;49.892;7.936;2023-01-28T03:25:01;2.70;99.90
13682;DHT22;6913;49.892;7.936;2023-01-28T03:27:52;2.70;99.90
13682;DHT22;6913;49.892;7.936;2023-01-28T03:30:42;2.70;99.90
13682;DHT22;6913;49.892;7.936;2023-01-28T03:33:30;2.70;99.90
13682;DHT22;6913;49.892;7.936;2023-01-28T03:36:15;2.70;99.90
13682;DHT22;6913;49.892;7.936;2023-01-28T03:38:59;2.80;99.90
13682;DHT22;6913;49.892;7.936;2023-01-28T03:41:26;2.70;99.90
13682;DHT22;6913;49.892;7.936;2023-01-28T03:43:53;2.70;99.90
13682;DHT22;6913;49.892;7.936;2023-01-28T03:46:20;2.70;99.90
13682;DHT22;6913;49.892;7.936;2023-01-28T03:48:49;2.70;99.90
13682;DHT22;6913;49.892;7.936;2023-01-28T03:51:15;2.70;99.90
13682;DHT22;6913;49.892;7.936;2023-01-28T03:53:42;2.70;99.90
13682;DHT22;6913;49.892;7.936;2023-01-28T03:56:09;2.70;99.90
13682;DHT22;6913;49.892;7.936;2023-01-28T03:58:43;2.70;99.90
13682;DHT22;6913;49.892;7.936;2023-01-28T04:01:17;2.70;99.90
13682;DHT22;6913;49.892;7.936;2023-01-28T04:03:44;2.70;99.90
13682;DHT22;6913;49.892;7.936;2023-01-28T04:06:12;2.70;99.90
13682;DHT22;6913;49.892;7.936;2023-01-28T04:08:39;2.70;99.90
13682;DHT22;6913;49.892;7.936;2023-01-28T04:11:10;2.60;99.90
13682;DHT22;6913;49.892;7.936;2023-01-28T04:13:41;2.70;99.90
13682;DHT22;6913;49.892;7.936;2023-01-28T04:16:09;2.70;99.90
13682;DHT22;6913;49.892;7.936;2023-01-28T04:18:36;2.70;99.90
13682;DHT22;6913;49.892;7.936;2023-01-28T04:21:03;2.70;99.90
13682;DHT22;6913;49.892;7.936;2023-01-28T04:23:31;2.70;99.90
13682;DHT22;6913;49.892;7.936;2023-01-28T04:25:58;2.70;99.90
13682;DHT22;6913;49.892;7.936;2023-01-28T04:28:25;2.70;99.90
13682;DHT22;6913;49.892;7.936;2023-01-28T04:30:52;2.70;99.90
13682;DHT22;6913;49.892;7.936;2023-01-28T04:33:19;2.70;99.90
13682;DHT22;6913;49.892;7.936;2023-01-28T04:35:45;3.00;99.90
13682;DHT22;6913;49.892;7.936;2023-01-28T04:38:12;2.70;99.90
13682;DHT22;6913;49.892;7.936;2023-01-28T04:40:40;2.70;99.90
13682;DHT22;6913;49.892;7.936;2023-01-28T04:43:08;2.70;99.90
13682;DHT22;6913;49.892;7.936;2023-01-28T04:45:34;2.70;99.90
13682;DHT22;6913;49.892;7.936;2023-01-28T04:48:01;2.70;99.90
13682;DHT22;6913;49.892;7.936;2023-01-28T04:50:28;2.80;99.90
13682;DHT22;6913;49.892;7.936;2023-01-28T04:52:55;2.70;99.90
13682;DHT22;6913;49.892;7.936;2023-01-28T04:55:21;2.70;99.90
13682;DHT22;6913;49.892;7.936;2023-01-28T04:57:49;2.70;99.90
13682;DHT22;6913;49.892;7.936;2023-01-28T05:00:17;2.70;99.90
13682;DHT22;6913;49.892;7.936;2023-01-28T05:02:44;2.70;99.90
13682;DHT22;6913;49.892;7.936;2023-01-28T05:05:11;2.70;99.90
13682;DHT22;6913;49.892;7.936;2023-01-28T05:07:38;2.70;99.90
13682;DHT22;6913;49.892;7.936;2023-01-28T05:10:05;2.60;99.90
13682;DHT22;6913;49.892;7.936;2023-01-28T05:12:32;2.70;99.90
13682;DHT22;6913;49.892;7.936;2023-01-28T05:15:00;2.70;99.90
13682;DHT22;6913;49.892;7.936;2023-01-28T05:17:28;2.70;99.90
13682;DHT22;6913;49.892;7.936;2023-01-28T05:19:55;2.70;99.90
13682;DHT22;6913;49.892;7.936;2023-01-28T05:22:21;2.70;99.90
13682;DHT22;6913;49.892;7.936;2023-01-28T05:24:48;2.70;99.90
13682;DHT22;6913;49.892;7.936;2023-01-28T05:27:15;2.70;99.90
13682;DHT22;6913;49.892;7.936;2023-01-28T05:29:42;2.70;99.90
13682;DHT22;6913;49.892;7.936;2023-01-28T05:32:10;2.70;99.90
13682;DHT22;6913;49.892;7.936;2023-01-28T05:34:36;2.70;99.90
13682;DHT22;6913;49.892;7.936;2023-01-28T05:37:03;2.70;99.90
13682;DHT22;6913;49.892;7.936;2023-01-28T05:39:30;2.70;99.90
13682;DHT22;6913;49.892;7.936;2023-01-28T05:41:57;2.70;99.90
13682;DHT22;6913;49.892;7.936;2023-01-28T05:44:24;2.60;99.90
13682;DHT22;6913;49.892;7.936;2023-01-28T05:46:51;2.60;99.90
13682;DHT22;6913;49.892;7.936;2023-01-28T05:49:19;2.60;99.90
13682;DHT22;6913;49.892;7.936;2023-01-28T05:51:46;2.60;99.90
13682;DHT22;6913;49.892;7.936;2023-01-28T05:54:14;2.60;99.90
13682;DHT22;6913;49.892;7.936;2023-01-28T05:56:41;2.50;99.90
13682;DHT22;6913;49.892;7.936;2023-01-28T05:59:10;2.60;99.90
13682;DHT22;6913;49.892;7.936;2023-01-28T06:01:37;2.50;99.90
13682;DHT22;6913;49.892;7.936;2023-01-28T06:04:04;2.60;99.90
13682;DHT22;6913;49.892;7.936;2023-01-28T06:06:32;2.60;99.90
13682;DHT22;6913;49.892;7.936;2023-01-28T06:08:59;2.60;99.90
13682;DHT22;6913;49.892;7.936;2023-01-28T06:11:26;2.60;99.90
13682;DHT22;6913;49.892;7.936;2023-01-28T06:13:53;2.50;99.90
13682;DHT22;6913;49.892;7.936;2023-01-28T06:16:19;2.50;99.90
13682;DHT22;6913;49.892;7.936;2023-01-28T06:18:46;2.50;99.90
13682;DHT22;6913;49.892;7.936;2023-01-28T06:21:13;3.20;99.90
13682;DHT22;6913;49.892;7.936;2023-01-28T06:23:41;2.50;99.90
13682;DHT22;6913;49.892;7.936;2023-01-28T06:26:08;2.40;99.90
13682;DHT22;6913;49.892;7.936;2023-01-28T06:28:35;2.50;99.90
13682;DHT22;6913;49.892;7.936;2023-01-28T06:31:01;2.40;99.90
13682;DHT22;6913;49.892;7.936;2023-01-28T06:33:28;2.50;99.90
13682;DHT22;6913;49.892;7.936;2023-01-28T06:35:55;2.50;99.90
13682;DHT22;6913;49.892;7.936;2023-01-28T06:38:22;2.50;99.90
13682;DHT22;6913;49.892;7.936;2023-01-28T06:40:53;2.50;99.90
13682;DHT22;6913;49.892;7.936;2023-01-28T06:43:20;2.50;99.90
13682;DHT22;6913;49.892;7.936;2023-01-28T06:45:52;2.50;99.90
13682;DHT22;6913;49.892;7.936;2023-01-28T06:48:18;2.50;99.90
13682;DHT22;6913;49.892;7.936;2023-01-28T06:50:46;2.50;99.90
13682;DHT22;6913;49.892;7.936;2023-01-28T06:53:13;2.40;99.90
13682;DHT22;6913;49.892;7.936;2023-01-28T06:55:39;2.50;99.90
13682;DHT22;6913;49.892;7.936;2023-01-28T06:58:08;2.50;99.90
13682;DHT22;6913;49.892;7.936;2023-01-28T07:00:35;2.40;99.90
13682;DHT22;6913;49.892;7.936;2023-01-28T07:03:02;2.40;99.90
13682;DHT22;6913;49.892;7.936;2023-01-28T07:05:29;2.40;99.90
13682;DHT22;6913;49.892;7.936;2023-01-28T07:07:56;2.70;99.90
13682;DHT22;6913;49.892;7.936;2023-01-28T07:10:22;2.40;99.90
13682;DHT22;6913;49.892;7.936;2023-01-28T07:12:49;2.40;99.90
13682;DHT22;6913;49.892;7.936;2023-01-28T07:15:17;2.40;99.90
13682;DHT22;6913;49.892;7.936;2023-01-28T07:17:44;2.40;99.90
13682;DHT22;6913;49.892;7.936;2023-01-28T07:20:13;2.40;99.90
13682;DHT22;6913;49.892;7.936;2023-01-28T07:22:41;2.40;99.90
13682;DHT22;6913;49.892;7.936;2023-01-28T07:25:09;2.50;99.90
13682;DHT22;6913;49.892;7.936;2023-01-28T07:27:37;2.50;99.90
13682;DHT22;6913;49.892;7.936;2023-01-28T07:30:04;2.50;99.90
13682;DHT22;6913;49.892;7.936;2023-01-28T07:32:32;2.50;99.90
13682;DHT22;6913;49.892;7.936;2023-01-28T07:34:59;2.50;99.90
13682;DHT22;6913;49.892;7.936;2023-01-28T07:37:26;2.50;99.90
13682;DHT22;6913;49.892;7.936;2023-01-28T07:39:53;2.50;99.90
13682;DHT22;6913;49.892;7.936;2023-01-28T07:42:19;2.50;99.90
13682;DHT22;6913;49.892;7.936;2023-01-28T07:44:46;2.50;99.90
13682;DHT22;6913;49.892;7.936;2023-01-28T07:47:14;2.50;99.90
13682;DHT22;6913;49.892;7.936;2023-01-28T07:49:42;2.50;99.90
13682;DHT22;6913;49.892;7.936;2023-01-28T07:52:09;2.60;99.90
13682;DHT22;6913;49.892;7.936;2023-01-28T07:54:36;2.60;99.90
13682;DHT22;6913;49.892;7.936;2023-01-28T07:57:06;2.50;99.90
13682;DHT22;6913;49.892;7.936;2023-01-28T07:59:34;2.60;99.90
13682;DHT22;6913;49.892;7.936;2023-01-28T08:02:01;2.60;99.90
13682;DHT22;6913;49.892;7.936;2023-01-28T08:04:28;2.60;99.90
13682;DHT22;6913;49.892;7.936;2023-01-28T08:06:56;2.50;99.90
13682;DHT22;6913;49.892;7.936;2023-01-28T08:09:23;2.50;99.90
13682;DHT22;6913;49.892;7.936;2023-01-28T08:11:50;2.60;99.90
13682;DHT22;6913;49.892;7.936;2023-01-28T08:14:17;2.60;99.90
13682;DHT22;6913;49.892;7.936;2023-01-28T08:16:43;2.60;99.90
13682;DHT22;6913;49.892;7.936;2023-01-28T08:19:10;2.60;99.90
13682;DHT22;6913;49.892;7.936;2023-01-28T08:21:37;2.60;99.90
13682;DHT22;6913;49.892;7.936;2023-01-28T08:24:06;2.60;99.90
13682;DHT22;6913;49.892;7.936;2023-01-28T08:26:33;2.60;99.90
13682;DHT22;6913;49.892;7.936;2023-01-28T08:28:59;2.60;99.90
13682;DHT22;6913;49.892;7.936;2023-01-28T08:31:26;2.60;99.90
13682;DHT22;6913;49.892;7.936;2023-01-28T08:33:54;2.70;99.90
13682;DHT22;6913;49.892;7.936;2023-01-28T08:36:20;2.70;99.90
13682;DHT22;6913;49.892;7.936;2023-01-28T08:38:50;2.70;99.90
13682;DHT22;6913;49.892;7.936;2023-01-28T08:41:20;2.70;99.90
13682;DHT22;6913;49.892;7.936;2023-01-28T08:43:47;2.70;99.90
13682;DHT22;6913;49.892;7.936;2023-01-28T08:46:14;2.70;99.90
13682;DHT22;6913;49.892;7.936;2023-01-28T08:48:41;2.80;99.90
13682;DHT22;6913;49.892;7.936;2023-01-28T08:51:07;2.80;99.90
13682;DHT22;6913;49.892;7.936;2023-01-28T08:53:34;2.80;99.90
13682;DHT22;6913;49.892;7.936;2023-01-28T08:56:01;3.20;99.90
13682;DHT22;6913;49.892;7.936;2023-01-28T08:58:29;2.80;99.90
13682;DHT22;6913;49.892;7.936;2023-01-28T09:00:56;2.80;99.90
13682;DHT22;6913;49.892;7.936;2023-01-28T09:03:23;2.80;99.90
13682;DHT22;6913;49.892;7.936;2023-01-28T09:05:50;2.80;99.90
13682;DHT22;6913;49.892;7.936;2023-01-28T09:08:17;2.80;99.90
13682;DHT22;6913;49.892;7.936;2023-01-28T09:10:44;2.80;99.90
13682;DHT22;6913;49.892;7.936;2023-01-28T09:13:14;2.80;99.90
13682;DHT22;6913;49.892;7.936;2023-01-28T09:15:42;2.80;99.90
13682;DHT22;6913;49.892;7.936;2023-01-28T09:18:09;2.80;99.90
13682;DHT22;6913;49.892;7.936;2023-01-28T09:20:36;2.80;99.90
13682;DHT22;6913;49.892;7.936;2023-01-28T09:23:03;2.80;99.90
13682;DHT22;6913;49.892;7.936;2023-01-28T09:25:30;2.80;99.90
13682;DHT22;6913;49.892;7.936;2023-01-28T09:27:57;2.90;99.90
13682;DHT22;6913;49.892;7.936;2023-01-28T09:30:24;2.90;99.90
13682;DHT22;6913;49.892;7.936;2023-01-28T09:32:54;2.90;99.90
13682;DHT22;6913;49.892;7.936;2023-01-28T09:35:21;2.90;99.90
13682;DHT22;6913;49.892;7.936;2023-01-28T09:37:48;3.00;99.90
13682;DHT22;6913;49.892;7.936;2023-01-28T09:40:19;3.00;99.90
13682;DHT22;6913;49.892;7.936;2023-01-28T09:42:58;3.10;99.90
13682;DHT22;6913;49.892;7.936;2023-01-28T09:45:32;3.20;99.90
13682;DHT22;6913;49.892;7.936;2023-01-28T09:48:07;3.20;99.90
13682;DHT22;6913;49.892;7.936;2023-01-28T09:50:37;3.20;99.90
13682;DHT22;6913;49.892;7.936;2023-01-28T09:53:10;3.20;99.90
13682;DHT22;6913;49.892;7.936;2023-01-28T09:55:40;3.90;99.90
13682;DHT22;6913;49.892;7.936;2023-01-28T09:58:10;3.30;99.90
13682;DHT22;6913;49.892;7.936;2023-01-28T10:00:45;3.20;99.90
13682;DHT22;6913;49.892;7.936;2023-01-28T10:03:34;3.30;99.90
13682;DHT22;6913;49.892;7.936;2023-01-28T10:06:14;3.20;99.90
13682;DHT22;6913;49.892;7.936;2023-01-28T10:09:05;3.50;99.90
13682;DHT22;6913;49.892;7.936;2023-01-28T10:11:53;3.30;99.90
13682;DHT22;6913;49.892;7.936;2023-01-28T10:14:31;3.30;99.90
13682;DHT22;6913;49.892;7.936;2023-01-28T10:17:07;3.60;99.90
13682;DHT22;6913;49.892;7.936;2023-01-28T10:19:41;3.40;99.90
13682;DHT22;6913;49.892;7.936;2023-01-28T10:22:13;2.70;99.90
13682;DHT22;6913;49.892;7.936;2023-01-28T10:24:46;3.40;99.90
13682;DHT22;6913;49.892;7.936;2023-01-28T10:27:16;3.30;99.90
13682;DHT22;6913;49.892;7.936;2023-01-28T10:29:43;3.40;99.90
13682;DHT22;6913;49.892;7.936;2023-01-28T10:32:20;3.70;99.90
13682;DHT22;6913;49.892;7.936;2023-01-28T10:34:51;3.40;99.90
13682;DHT22;6913;49.892;7.936;2023-01-28T10:37:19;3.30;99.90
13682;DHT22;6913;49.892;7.936;2023-01-28T10:39:46;3.70;99.90
13682;DHT22;6913;49.892;7.936;2023-01-28T10:42:19;3.70;99.90
13682;DHT22;6913;49.892;7.936;2023-01-28T10:44:50;3.40;99.90
13682;DHT22;6913;49.892;7.936;2023-01-28T10:47:28;3.40;99.90
13682;DHT22;6913;49.892;7.936;2023-01-28T10:49:57;3.40;99.90
13682;DHT22;6913;49.892;7.936;2023-01-28T10:52:25;3.50;99.90
13682;DHT22;6913;49.892;7.936;2023-01-28T10:54:59;3.50;99.90
13682;DHT22;6913;49.892;7.936;2023-01-28T10:57:26;3.40;99.90
13682;DHT22;6913;49.892;7.936;2023-01-28T10:59:53;3.40;99.90
13682;DHT22;6913;49.892;7.936;2023-01-28T11:02:25;3.40;99.90
13682;DHT22;6913;49.892;7.936;2023-01-28T11:05:04;3.40;99.90
13682;DHT22;6913;49.892;7.936;2023-01-28T11:07:32;3.50;99.90
13682;DHT22;6913;49.892;7.936;2023-01-28T11:09:59;3.50;99.90
13682;DHT22;6913;49.892;7.936;2023-01-28T11:12:27;3.90;99.90
13682;DHT22;6913;49.892;7.936;2023-01-28T11:14:56;4.30;99.90
13682;DHT22;6913;49.892;7.936;2023-01-28T11:17:25;3.50;99.90
13682;DHT22;6913;49.892;7.936;2023-01-28T11:19:55;3.50;99.90
13682;DHT22;6913;49.892;7.936;2023-01-28T11:22:29;3.50;99.90
13682;DHT22;6913;49.892;7.936;2023-01-28T11:24:57;3.50;99.90
13682;DHT22;6913;49.892;7.936;2023-01-28T11:27:27;3.50;99.90
13682;DHT22;6913;49.892;7.936;2023-01-28T11:29:56;3.50;99.90
13682;DHT22;6913;49.892;7.936;2023-01-28T11:32:27;3.40;99.90
13682;DHT22;6913;49.892;7.936;2023-01-28T11:34:55;3.30;99.90
13682;DHT22;6913;49.892;7.936;2023-01-28T11:37:26;3.30;99.90
13682;DHT22;6913;49.892;7.936;2023-01-28T11:40:13;3.20;99.90
13682;DHT22;6913;49.892;7.936;2023-01-28T11:42:44;3.20;99.90
13682;DHT22;6913;49.892;7.936;2023-01-28T11:45:15;3.20;99.90
13682;DHT22;6913;49.892;7.936;2023-01-28T11:48:04;3.50;99.90
13682;DHT22;6913;49.892;7.936;2023-01-28T11:50:44;3.10;99.90
13682;DHT22;6913;49.892;7.936;2023-01-28T11:53:38;3.10;99.90
13682;DHT22;6913;49.892;7.936;2023-01-28T11:59:27;3.30;99.90
13682;DHT22;6913;49.892;7.936;2023-01-28T12:02:07;3.20;99.90
13682;DHT22;6913;49.892;7.936;2023-01-28T12:04:52;3.20;99.90
13682;DHT22;6913;49.892;7.936;2023-01-28T12:07:32;3.20;99.90
13682;DHT22;6913;49.892;7.936;2023-01-28T12:10:08;3.20;99.90
13682;DHT22;6913;49.892;7.936;2023-01-28T12:12:56;3.30;99.90
13682;DHT22;6913;49.892;7.936;2023-01-28T12:18:42;3.30;99.90
13682;DHT22;6913;49.892;7.936;2023-01-28T12:21:22;3.20;99.90
13682;DHT22;6913;49.892;7.936;2023-01-28T12:24:02;3.10;99.90
13682;DHT22;6913;49.892;7.936;2023-01-28T12:26:41;3.10;99.90
13682;DHT22;6913;49.892;7.936;2023-01-28T12:29:20;3.10;99.90
13682;DHT22;6913;49.892;7.936;2023-01-28T12:32:01;3.00;99.90
13682;DHT22;6913;49.892;7.936;2023-01-28T12:37:30;3.10;99.90
13682;DHT22;6913;49.892;7.936;2023-01-28T12:40:07;3.20;99.90
13682;DHT22;6913;49.892;7.936;2023-01-28T12:42:40;3.00;99.90
13682;DHT22;6913;49.892;7.936;2023-01-28T12:45:14;3.00;99.90
13682;DHT22;6913;49.892;7.936;2023-01-28T12:47:46;2.90;99.90
13682;DHT22;6913;49.892;7.936;2023-01-28T12:50:17;3.00;99.90
13682;DHT22;6913;49.892;7.936;2023-01-28T12:52:48;3.00;99.90
13682;DHT22;6913;49.892;7.936;2023-01-28T12:55:21;3.00;99.90
13682;DHT22;6913;49.892;7.936;2023-01-28T12:57:53;2.90;99.90
13682;DHT22;6913;49.892;7.936;2023-01-28T13:00:26;2.90;99.90
13682;DHT22;6913;49.892;7.936;2023-01-28T13:03:01;3.00;99.90
13682;DHT22;6913;49.892;7.936;2023-01-28T13:05:35;2.90;99.90
13682;DHT22;6913;49.892;7.936;2023-01-28T13:08:09;2.90;99.90
13682;DHT22;6913;49.892;7.936;2023-01-28T13:10:40;2.80;99.90
13682;DHT22;6913;49.892;7.936;2023-01-28T13:13:14;2.80;99.90
13682;DHT22;6913;49.892;7.936;2023-01-28T13:15:43;2.80;99.90
13682;DHT22;6913;49.892;7.936;2023-01-28T13:18:32;2.80;99.90
13682;DHT22;6913;49.892;7.936;2023-01-28T13:21:00;2.70;99.90
13682;DHT22;6913;49.892;7.936;2023-01-28T13:23:38;2.70;99.90
13682;DHT22;6913;49.892;7.936;2023-01-28T13:26:27;2.70;99.90
13682;DHT22;6913;49.892;7.936;2023-01-28T13:29:08;2.60;99.90
13682;DHT22;6913;49.892;7.936;2023-01-28T13:31:44;2.60;99.90
13682;DHT22;6913;49.892;7.936;2023-01-28T13:34:30;2.60;99.90
13682;DHT22;6913;49.892;7.936;2023-01-28T13:37:00;2.60;99.90
13682;DHT22;6913;49.892;7.936;2023-01-28T13:39:28;2.70;99.90
13682;DHT22;6913;49.892;7.936;2023-01-28T13:42:09;2.70;99.90
13682;DHT22;6913;49.892;7.936;2023-01-28T13:44:37;2.70;99.90
13682;DHT22;6913;49.892;7.936;2023-01-28T13:47:19;2.70;99.90
13682;DHT22;6913;49.892;7.936;2023-01-28T13:49:49;2.70;99.90
13682;DHT22;6913;49.892;7.936;2023-01-28T13:52:25;2.60;99.90
13682;DHT22;6913;49.892;7.936;2023-01-28T13:54:56;2.60;99.90
13682;DHT22;6913;49.892;7.936;2023-01-28T13:57:47;2.70;99.90
13682;DHT22;6913;49.892;7.936;2023-01-28T14:00:24;2.70;99.90
13682;DHT22;6913;49.892;7.936;2023-01-28T14:06:22;2.60;99.90
13682;DHT22;6913;49.892;7.936;2023-01-28T14:09:04;2.50;99.90
13682;DHT22;6913;49.892;7.936;2023-01-28T14:12:00;2.50;99.90
13682;DHT22;6913;49.892;7.936;2023-01-28T14:15:02;2.50;99.90
13682;DHT22;6913;49.892;7.936;2023-01-28T14:17:38;2.50;99.90
13682;DHT22;6913;49.892;7.936;2023-01-28T14:20:15;2.50;99.90
13682;DHT22;6913;49.892;7.936;2023-01-28T14:22:43;2.50;99.90
13682;DHT22;6913;49.892;7.936;2023-01-28T14:25:13;2.50;99.90
13682;DHT22;6913;49.892;7.936;2023-01-28T14:27:44;2.50;99.90
13682;DHT22;6913;49.892;7.936;2023-01-28T14:30:18;2.50;99.90
13682;DHT22;6913;49.892;7.936;2023-01-28T14:32:51;2.50;99.90
13682;DHT22;6913;49.892;7.936;2023-01-28T14:35:23;2.70;99.90
13682;DHT22;6913;49.892;7.936;2023-01-28T14:37:50;2.40;99.90
13682;DHT22;6913;49.892;7.936;2023-01-28T14:40:18;2.30;99.90
13682;DHT22;6913;49.892;7.936;2023-01-28T14:42:48;2.30;99.90
13682;DHT22;6913;49.892;7.936;2023-01-28T14:45:31;2.30;99.90
13682;DHT22;6913;49.892;7.936;2023-01-28T14:48:20;2.30;99.90
13682;DHT22;6913;49.892;7.936;2023-01-28T14:51:14;2.20;99.90
13682;DHT22;6913;49.892;7.936;2023-01-28T14:54:06;1.90;99.90
13682;DHT22;6913;49.892;7.936;2023-01-28T14:56:44;1.90;99.90
13682;DHT22;6913;49.892;7.936;2023-01-28T14:59:17;2.00;99.90
13682;DHT22;6913;49.892;7.936;2023-01-28T15:01:46;2.10;99.90
13682;DHT22;6913;49.892;7.936;2023-01-28T15:04:23;2.50;99.90
13682;DHT22;6913;49.892;7.936;2023-01-28T15:06:50;2.20;99.90
13682;DHT22;6913;49.892;7.936;2023-01-28T15:09:17;2.20;99.90
13682;DHT22;6913;49.892;7.936;2023-01-28T15:11:45;2.30;99.90
13682;DHT22;6913;49.892;7.936;2023-01-28T15:14:19;2.30;99.90
13682;DHT22;6913;49.892;7.936;2023-01-28T15:16:48;2.30;99.90
13682;DHT22;6913;49.892;7.936;2023-01-28T15:19:15;2.30;99.90
13682;DHT22;6913;49.892;7.936;2023-01-28T15:21:44;2.50;99.90
13682;DHT22;6913;49.892;7.936;2023-01-28T15:24:13;2.20;99.90
13682;DHT22;6913;49.892;7.936;2023-01-28T15:26:45;2.10;99.90
13682;DHT22;6913;49.892;7.936;2023-01-28T15:29:22;2.10;99.90
13682;DHT22;6913;49.892;7.936;2023-01-28T15:31:50;2.10;99.90
13682;DHT22;6913;49.892;7.936;2023-01-28T15:34:18;2.20;99.90
13682;DHT22;6913;49.892;7.936;2023-01-28T15:36:47;2.30;99.90
13682;DHT22;6913;49.892;7.936;2023-01-28T15:39:16;2.10;99.90
13682;DHT22;6913;49.892;7.936;2023-01-28T15:41:45;2.60;99.90
13682;DHT22;6913;49.892;7.936;2023-01-28T15:44:18;1.80;99.90
13682;DHT22;6913;49.892;7.936;2023-01-28T15:46:47;1.90;99.90
13682;DHT22;6913;49.892;7.936;2023-01-28T15:49:16;2.00;99.90
13682;DHT22;6913;49.892;7.936;2023-01-28T15:51:49;2.00;99.90
13682;DHT22;6913;49.892;7.936;2023-01-28T15:54:17;2.30;99.90
13682;DHT22;6913;49.892;7.936;2023-01-28T15:56:44;1.90;99.90
13682;DHT22;6913;49.892;7.936;2023-01-28T15:59:18;1.70;99.90
13682;DHT22;6913;49.892;7.936;2023-01-28T16:01:47;1.60;99.90
13682;DHT22;6913;49.892;7.936;2023-01-28T16:04:24;1.60;99.90
13682;DHT22;6913;49.892;7.936;2023-01-28T16:06:54;1.70;99.90
13682;DHT22;6913;49.892;7.936;2023-01-28T16:09:24;1.70;99.90
13682;DHT22;6913;49.892;7.936;2023-01-28T16:11:52;1.70;99.90
13682;DHT22;6913;49.892;7.936;2023-01-28T16:14:22;1.60;99.90
13682;DHT22;6913;49.892;7.936;2023-01-28T16:16:51;1.60;99.90
13682;DHT22;6913;49.892;7.936;2023-01-28T16:19:28;1.50;99.90
13682;DHT22;6913;49.892;7.936;2023-01-28T16:21:57;1.50;99.90
13682;DHT22;6913;49.892;7.936;2023-01-28T16:24:27;1.40;99.90
13682;DHT22;6913;49.892;7.936;2023-01-28T16:26:55;1.50;99.90
13682;DHT22;6913;49.892;7.936;2023-01-28T16:29:24;1.50;99.90
13682;DHT22;6913;49.892;7.936;2023-01-28T16:31:51;1.50;99.90
13682;DHT22;6913;49.892;7.936;2023-01-28T16:34:18;1.90;99.90
13682;DHT22;6913;49.892;7.936;2023-01-28T16:36:45;1.50;99.90
13682;DHT22;6913;49.892;7.936;2023-01-28T16:39:13;1.50;99.90
13682;DHT22;6913;49.892;7.936;2023-01-28T16:41:41;1.40;99.90